Gilze-Rijen, Netherlands

5:59 PM CET on February 08, 2016 (GMT +0100)
Gilze-Rijen Air Base | | Change Station
CLOSE
Current Station
Airport
Location: Gilze-Rijen,
Elevation: 43 ft
Nearby Weather Stations

Elev 43 ft 51.56 °N, 4.94 °E | Updated 4 minutes ago

Light Rain
Light Rain Drizzle
46 °F
Feels Like 38 °F
N
22
Wind Variable Wind from SW
Gusts 39 mph

Today
High -- | Low -- °F
--% Chance of Precip.
Yesterday
High -- | Low -- °F
Precip. -- in
Pressure 29.21 in
Visibility 6.2 miles
Clouds Scattered Clouds 2500 ft
Mostly Cloudy 2900 ft
Mostly Cloudy 3200 ft
Windchill 38 °F
Dew Point 39 °F
Humidity 76%
Rainfall 0.00 in
Snow Depth Not available.
8:08 AM 5:41 PM
New Moon, 0% visible
METAR EHGR 081655Z AUTO 22019G34KT 180V270 9999 -RADZ SCT025 BKN029 BKN032 08/04 Q0989 BLU 22020G35KT 9999 -RA SCT025 BKN030 TEMPO 4500 SHRA FEW015 SCT020CB BKN025
Pressure 29.21 in
Visibility 6.2 miles
Clouds Scattered Clouds 2500 ft
Mostly Cloudy 2900 ft
Mostly Cloudy 3200 ft
Windchill 38 °F
Dew Point 39 °F
Humidity 76%
Rainfall 0.00 in
Snow Depth Not available.
8:08 AM 5:41 PM
New Moon, 0% visible
METAR EHGR 081655Z AUTO 22019G34KT 180V270 9999 -RADZ SCT025 BKN029 BKN032 08/04 Q0989 BLU 22020G35KT 9999 -RA SCT025 BKN030 TEMPO 4500 SHRA FEW015 SCT020CB BKN025

10-Day Weather Forecast

Almanac

Astronomy

Feb. 08, 2016 Rise Set
Actual Time
Civil Twilight
Nautical Twilight
Astronomical Twilight
Moon
Length of Visible Light
Length of Day
Tomorrow will be .
, % of the Moon is Illuminated

Today's Extremes

Country Highs Country Lows

Community

WunderPhotos

Upload Photos

1,891,462 photos uploaded!

WunderBlog® & News

Nearby

Air Quality

  Air Quality AQ Index Pollutant
Not available.

Snow Depth

Station Depth Elevation

Earthquake Activity

City Distance Mag. Time & Date
Minimum magnitude displayed is 2.5.

Coastal Water Temperatures

Place Temperature

Stations

Nearby Weather Stations

Station Location Temp. Windchill Dew Point Humidity Wind Precip. Elev Updated Type